Cutler, Maine
Current Conditions -  °F | °C
As of 5:55 PM on Monday 24 Nov 2014 (Local Time) from KBHB Reporting Station
Overcast Overcast  
Wind Chill: 57°   Ceiling: 200
Heat Index: 57°   Visibility: 2.5mi
Dew Point: 57°   Wind: 28mph
Humidity: 100%   Direction: 190°S
Pressure: 29.57"   Gusts: 37mph
Location:  44.66°N, 67.2°W
Report Text: KBHB 242255Z AUTO 19024G32KT 2 1/2SM OVC002 14/14 A2957 RMK AO1
Loading
Personal Weather Stations






























Interactive Weather Map New forecast layout! Learn more

10-Day Weather Forecast

Advertisements
Track Severe Weather on mobile